»·PEaware :: N313N KPSP-KVNY

N313N :: KPSP-KVNY

FLIGHT INFORMATION

Flight Status: Arrived
Operator: Privately registered:
United States
More flights under this callsign
Pilot: Damien O. (2415)
Aircraft: ECLIPSE 500
(EA50)
More flights by this aircraft type
Origin: KPSP Palm Springs Intl
United States
Destination: KVNY Van Nuys
United States
More flights between these airports :: More routes between these airports
Route: +CATH1 PSP V388 PDZ V197 POM V264 ITSME V186 VNY
File this flight plan on PilotEdge
Remarks:
Altitude:
(Current/Filed)
12,000ft
Speed:
(Current/Filed)
250kts
Departed: 11-Jan-19 05:53 PM
Arrived: 11-Jan-19 06:35 PM
Distance/Time
Traveled:
101nm/0:42
Distance/Time
To Go:
Arrived

Flight Plot

Page will automatically refresh every two minutes.


Map Options




Map Legend


Flown Route
Filed Route
Departure Airport
Arrival Airport
Navaid (VOR, NDB)
Fix

Horizontal Profiles

Position Reports

Time Latitude Longitude Heading Altitude Ground
Speed
11-Jan-19 17:39 33.824505 -116.498625 56 430ft 0kts
11-Jan-19 17:40 33.824505 -116.498625 56 430ft 0kts
11-Jan-19 17:41 33.824505 -116.498625 56 430ft 0kts
11-Jan-19 17:42 33.824505 -116.498625 56 430ft 0kts
11-Jan-19 17:43 33.824505 -116.498625 56 430ft 0kts
11-Jan-19 17:44 33.824505 -116.498625 56 430ft 0kts
11-Jan-19 17:45 33.824530 -116.498579 56 430ft 0kts
11-Jan-19 17:46 33.824530 -116.498579 56 430ft 0kts
11-Jan-19 17:47 33.824530 -116.498579 56 430ft 0kts
11-Jan-19 17:48 33.824458 -116.498798 297 430ft 8kts
11-Jan-19 17:49 33.824565 -116.499738 238 430ft 0kts
11-Jan-19 17:50 33.824565 -116.499738 238 430ft 0kts
11-Jan-19 17:51 33.824550 -116.499767 238 430ft 0kts
11-Jan-19 17:52 33.851908 -116.525815 321 1364ft 222kts
11-Jan-19 17:53 33.884388 -116.496194 86 3277ft 202kts
11-Jan-19 17:54 33.875846 -116.430645 117 5107ft 214kts
11-Jan-19 17:55 33.895047 -116.391715 313 7017ft 236kts
11-Jan-19 17:57 33.910297 -116.475055 276 6992ft 265kts
11-Jan-19 17:58 33.920985 -116.564932 276 8522ft 279kts
11-Jan-19 17:59 33.936220 -116.658413 281 10546ft 286kts
11-Jan-19 18:00 33.954293 -116.748199 278 11969ft 300kts
11-Jan-19 18:01 33.962669 -116.801910 278 11972ft 321kts
11-Jan-19 18:02 33.982908 -116.930514 278 11955ft 308kts
11-Jan-19 18:03 34.002596 -117.051463 276 11956ft 305kts
11-Jan-19 18:04 34.018888 -117.153860 276 10747ft 337kts
11-Jan-19 18:05 34.035140 -117.268546 276 9038ft 353kts
11-Jan-19 18:06 34.049727 -117.380965 276 8954ft 330kts
11-Jan-19 18:07 34.063990 -117.488560 276 8953ft 323kts
11-Jan-19 18:08 34.078780 -117.594984 276 8956ft 320kts
11-Jan-19 18:09 34.091203 -117.687606 263 8959ft 254kts
11-Jan-19 18:10 34.088940 -117.770962 263 8957ft 244kts
11-Jan-19 18:11 34.083298 -117.851167 256 8957ft 235kts
11-Jan-19 18:12 34.072568 -117.928635 256 8957ft 233kts
11-Jan-19 18:13 34.066822 -118.006172 281 8961ft 241kts
11-Jan-19 18:14 34.086032 -118.084152 281 8957ft 243kts
11-Jan-19 18:15 34.103940 -118.162296 279 8950ft 245kts
11-Jan-19 18:15 34.117888 -118.229091 279 7662ft 261kts
11-Jan-19 18:16 34.132995 -118.309548 280 5803ft 268kts
11-Jan-19 18:18 34.140144 -118.393211 270 4017ft 249kts
11-Jan-19 18:19 34.142038 -118.453463 270 4010ft 203kts
11-Jan-19 18:19 34.168545 -118.489181 320 4820ft 213kts
11-Jan-19 18:20 34.225146 -118.542452 321 4946ft 295kts
11-Jan-19 18:21 34.297589 -118.583378 352 4943ft 282kts
11-Jan-19 18:22 34.392342 -118.600233 352 4944ft 273kts
11-Jan-19 18:23 34.460015 -118.610856 352 4950ft 219kts
11-Jan-19 18:24 34.517096 -118.617578 352 4962ft 198kts
11-Jan-19 18:25 34.552192 -118.587306 110 5027ft 205kts
11-Jan-19 18:26 34.511552 -118.539118 152 4971ft 201kts
11-Jan-19 18:27 34.462809 -118.514303 174 4961ft 192kts
11-Jan-19 18:28 34.410108 -118.509301 175 4953ft 183kts
11-Jan-19 18:29 34.359880 -118.504637 175 4503ft 191kts
11-Jan-19 18:30 34.306983 -118.499536 175 3185ft 181kts
11-Jan-19 18:31 34.263812 -118.495443 175 2096ft 138kts
11-Jan-19 18:32 34.231850 -118.492477 175 1286ft 124kts
11-Jan-19 18:33 34.206333 -118.490073 171 807ft 41kts
11-Jan-19 18:34 34.206432 -118.488272 5 807ft 25kts
11-Jan-19 18:35 34.209613 -118.486503 113 807ft 12kts
11-Jan-19 18:36 34.209739 -118.486358 255 806ft 0kts

Navigation Log

Ident Type
Flight plan parsing failed, navigation log unavailable